Flight Track Log - Related Links

Times and Time Zones

All times are in EDT time to prevent confusion due to time zone crossing. See the QLK108D flight status page for this flight to view local times or setup timezone preferences in your user account.

Time Position Orientation Groundspeed Altitude Reporting Facility
EDT Latitude Longitude Course Direction KTS MPH feet Rate Location/Type
Sun 09:56:38 PM -33.8869 151.2124 180° South 18,200  Level Aus ATC (Calculated)
Sun 09:57:11 PM -33.9833 151.2131 96° East 161 185 1,600 -10,447 Descending Aus ATC (RADAR)
Sun 09:58:03 PM -33.9885 151.2685 96° East 204 235 3,400 2,240 Climbing Aus ATC (RADAR)
Sun 09:58:26 PM -33.9910 151.2985 96° East 213 245 4,400 1,969 Climbing Aus ATC (RADAR)
Sun 09:59:07 PM -33.9862 151.3501 84° East 244 281 5,500 2,051 Climbing Aus ATC (RADAR)
Sun 09:59:45 PM -33.9446 151.3699 22° Northeast 247 284 7,100 2,351 Climbing Aus ATC (RADAR)
Sun 10:00:21 PM -33.9023 151.3713 North 258 297 8,400 1,780 Climbing Aus ATC (RADAR)
Sun 10:01:16 PM -33.8323 151.3798 North 282 325 9,800 1,575 Climbing Aus ATC (RADAR)
Sun 10:01:41 PM -33.7987 151.3850 North 292 336 10,500 1,875 Climbing Aus ATC (RADAR)
Sun 10:02:20 PM -33.7451 151.3932 North 288 331 11,800 1,765 Climbing Aus ATC (RADAR)
Sun 10:03:06 PM -33.6825 151.4032 North 297 342 13,000 1,556 Climbing Aus ATC (RADAR)
Sun 10:03:41 PM -33.6318 151.4111 North 313 360 13,900 1,500 Climbing Aus ATC (RADAR)
Sun 10:04:26 PM -33.5663 151.4212 North 318 366 15,000 1,371 Climbing Aus ATC (RADAR)
Sun 10:04:51 PM -33.5293 151.4271 North 322 371 15,500 1,309 Climbing Aus ATC (RADAR)
Sun 10:05:21 PM -33.4848 151.4359 North 325 374 16,200 1,281 Climbing Aus ATC (RADAR)
Sun 10:06:20 PM -33.4026 151.4847 26° Northeast 331 381 17,400 1,214 Climbing Aus ATC (RADAR)
Sun 10:06:45 PM -33.3681 151.5057 27° Northeast 331 381 17,900 1,082 Climbing Aus ATC (RADAR)
Sun 10:07:21 PM -33.3192 151.5343 26° Northeast 332 382 18,500 1,099 Climbing Aus ATC (RADAR)
Sun 10:07:56 PM -33.2696 151.5625 25° Northeast 337 388 19,200 1,054 Climbing Aus ATC (RADAR)
Sun 10:08:35 PM -33.2133 151.5946 25° Northeast 335 386 19,800 988 Climbing Aus ATC (RADAR)
Sun 10:09:21 PM -33.1483 151.6317 26° Northeast 342 394 20,600 1,014 Climbing Aus ATC (RADAR)
Sun 10:09:46 PM -33.1126 151.6525 26° Northeast 342 394 21,000 656 Climbing Aus ATC (RADAR)
Sun 10:10:25 PM -33.0552 151.6850 25° Northeast 346 398 21,300 182 Climbing Aus ATC (RADAR)
Sun 10:11:25 PM -32.9639 151.7371 26° Northeast 366 421 21,300  Level Aus ATC (RADAR)
Sun 10:11:50 PM -32.9253 151.7590 26° Northeast 368 423 21,300  Level Aus ATC (RADAR)
Sun 10:12:24 PM -32.8702 151.7905 26° Northeast 376 433 21,300  Level Aus ATC (RADAR)
Sun 10:13:10 PM -32.7985 151.8308 25° Northeast 379 436 21,300  Level Aus ATC (RADAR)
Sun 10:13:45 PM -32.7457 151.8705 32° Northeast 381 438 21,300  Level Aus ATC (RADAR)
Sun 10:14:30 PM -32.6794 151.9243 34° Northeast 380 437 21,300  Level Aus ATC (RADAR)
Sun 10:14:55 PM -32.6423 151.9535 33° Northeast 379 436 21,300  Level Aus ATC (RADAR)
Sun 10:15:30 PM -32.5901 151.9936 33° Northeast 379 436 21,300  Level Aus ATC (RADAR)
Sun 10:16:50 PM -32.4707 152.0845 33° Northeast 379 436 21,300  Level Aus ATC (RADAR)
Sun 10:17:06 PM -32.4482 152.1016 33° Northeast 380 437 21,300  Level Aus ATC (RADAR)
Sun 10:17:40 PM -32.3961 152.1412 33° Northeast 378 435 21,300  Level Aus ATC (RADAR)
Sun 10:18:25 PM -32.3293 152.1928 33° Northeast 377 434 21,300  Level Aus ATC (RADAR)
Sun 10:19:04 PM -32.2697 152.2380 33° Northeast 382 440 21,300  Level Aus ATC (RADAR)
Sun 10:19:49 PM -32.2027 152.2890 33° Northeast 383 441 21,300  Level Aus ATC (RADAR)
Sun 10:20:14 PM -32.1652 152.3174 33° Northeast 382 440 21,300  Level Aus ATC (RADAR)
Sun 10:20:50 PM -32.1129 152.3571 33° Northeast 378 435 21,300  Level Aus ATC (RADAR)
Sun 10:21:39 PM -32.0381 152.4142 33° Northeast 385 443 21,300  Level Aus ATC (RADAR)
Sun 10:22:04 PM -32.0005 152.4422 32° Northeast 385 443 21,300  Level Aus ATC (RADAR)
Sun 10:22:40 PM -31.9482 152.4822 33° Northeast 379 436 21,300  Level Aus ATC (RADAR)
Sun 10:23:25 PM -31.8811 152.5327 33° Northeast 377 434 21,300  Level Aus ATC (RADAR)
Sun 10:24:00 PM -31.8288 152.5720 33° Northeast 377 434 21,300  Level Aus ATC (RADAR)
Sun 10:24:45 PM -31.7619 152.6226 33° Northeast 375 432 21,300  Level Aus ATC (RADAR)
Sun 10:25:10 PM -31.7242 152.6503 32° Northeast 376 433 21,300  Level Aus ATC (RADAR)
Sun 10:25:48 PM -31.6646 152.6952 33° Northeast 384 442 21,300  Level Aus ATC (RADAR)
Sun 10:26:43 PM -31.5826 152.7569 33° Northeast 383 441 21,300  Level Aus ATC (RADAR)
Sun 10:27:08 PM -31.5453 152.7843 32° Northeast 382 440 21,300  Level Aus ATC (RADAR)
Sun 10:27:44 PM -31.4927 152.8232 32° Northeast 377 434 21,300  Level Aus ATC (RADAR)
Sun 10:28:33 PM -31.4170 152.8739 30° Northeast 374 430 21,300 -565 Level Aus ATC (RADAR)
Sun 10:29:09 PM -31.3577 152.8878 11° North 364 419 20,500 -1,630 Descending Aus ATC (RADAR)
Sun 10:29:54 PM -31.2810 152.9023 North 368 423 19,100 -1,971 Descending Aus ATC (RADAR)
Sun 10:30:19 PM -31.2384 152.9116 11° North 370 426 18,200 -2,063 Descending Aus ATC (RADAR)
Sun 10:30:58 PM -31.1712 152.9265 11° North 372 428 16,900 -1,906 Descending Aus ATC (RADAR)
Sun 10:31:44 PM -31.0962 152.9444 12° North 363 418 15,500 -1,859 Descending Aus ATC (RADAR)
Sun 10:32:09 PM -31.0554 152.9538 11° North 359 413 14,700 -1,900 Descending Aus ATC (RADAR)
Sun 10:32:44 PM -30.9995 152.9662 11° North 351 404 13,600 -1,888 Descending Aus ATC (RADAR)
Sun 10:33:38 PM -30.9118 152.9867 11° North 352 405 11,900 -1,800 Descending Aus ATC (RADAR)
Sun 10:34:14 PM -30.8599 152.9992 12° North 330 380 10,900 -1,780 Descending Aus ATC (RADAR)
Sun 10:35:09 PM -30.7840 153.0165 11° North 303 349 9,200 -1,725 Descending Aus ATC (RADAR)
Sun 10:35:34 PM -30.7497 153.0228 North 297 342 8,600 -1,500 Descending Aus ATC (RADAR)
Sun 10:36:09 PM -30.7061 153.0329 11° North 280 322 7,700 -1,360 Descending Aus ATC (RADAR)
Sun 10:36:49 PM -30.6524 153.0397 North 301 346 6,900 -1,200 Descending Aus ATC (RADAR)

Login

Don't have an account? Register now (free) for customized features, flight alerts, and more!